createdAt,value
2019-03-08T00:00:21.710Z,7.33
2019-03-08T00:02:54.911Z,7.97
2019-03-08T00:05:28.823Z,4.80
2019-03-08T00:08:00.564Z,2.90
2019-03-08T00:10:32.152Z,5.40
2019-03-08T00:13:05.339Z,3.93
2019-03-08T00:15:37.137Z,8.27
2019-03-08T00:18:08.809Z,6.17
2019-03-08T00:20:41.418Z,4.90
2019-03-08T00:23:12.932Z,8.27
2019-03-08T00:25:44.458Z,4.47
2019-03-08T00:28:16.176Z,6.73
2019-03-08T00:30:47.915Z,9.67
2019-03-08T00:33:19.418Z,2.83
2019-03-08T00:35:51.138Z,11.03
2019-03-08T00:38:22.661Z,6.80
2019-03-08T00:40:54.143Z,7.67
2019-03-08T00:43:25.643Z,5.27
2019-03-08T00:45:57.134Z,6.23
2019-03-08T00:48:29.622Z,5.80
2019-03-08T00:51:01.094Z,5.77
2019-03-08T00:53:32.579Z,5.30
2019-03-08T00:56:04.054Z,7.63
2019-03-08T00:58:37.377Z,7.80
2019-03-08T01:01:10.854Z,8.43
2019-03-08T01:03:42.509Z,8.93
2019-03-08T01:06:14.349Z,5.70
2019-03-08T01:08:46.003Z,8.13
2019-03-08T01:11:17.519Z,10.10
2019-03-08T01:13:49.204Z,6.33
2019-03-08T01:16:20.751Z,11.67
2019-03-08T01:18:52.209Z,6.43
2019-03-08T01:21:25.044Z,3.97
2019-03-08T01:23:56.679Z,7.23
2019-03-08T01:26:29.512Z,5.50
2019-03-08T01:29:01.059Z,11.23
2019-03-08T01:31:34.520Z,9.70
2019-03-08T01:34:06.005Z,6.87
2019-03-08T01:36:37.472Z,6.03
2019-03-08T01:39:09.220Z,11.40
2019-03-08T01:41:40.760Z,5.40
2019-03-08T01:44:15.098Z,8.20
2019-03-08T01:46:46.690Z,6.90
2019-03-08T01:49:18.288Z,8.40
2019-03-08T01:51:49.954Z,7.33
2019-03-08T01:54:21.533Z,7.33
2019-03-08T01:56:53.040Z,10.27
2019-03-08T01:59:24.519Z,5.10
2019-03-08T02:01:57.288Z,10.63
2019-03-08T02:04:29.858Z,5.77
2019-03-08T02:07:01.430Z,6.80
2019-03-08T02:09:52.496Z,5.93
2019-03-08T02:12:24.232Z,7.70
2019-03-08T02:14:55.942Z,4.97
2019-03-08T02:17:27.578Z,4.97
2019-03-08T02:19:59.309Z,8.80
2019-03-08T02:22:31.030Z,9.37
2019-03-08T02:25:02.502Z,9.40
2019-03-08T02:27:33.983Z,8.33
2019-03-08T02:30:07.188Z,10.27
2019-03-08T02:32:38.742Z,6.70
2019-03-08T02:35:10.797Z,6.30
2019-03-08T02:37:53.676Z,6.27
2019-03-08T02:40:35.372Z,8.50
2019-03-08T02:43:14.326Z,6.57
2019-03-08T02:45:45.755Z,7.73
2019-03-08T02:48:17.284Z,5.27
2019-03-08T02:50:48.765Z,5.97
2019-03-08T02:53:20.381Z,4.80
2019-03-08T02:55:51.800Z,6.53
2019-03-08T02:58:23.250Z,9.03
2019-03-08T03:00:54.694Z,8.90
2019-03-08T03:03:27.377Z,6.50
2019-03-08T03:06:00.901Z,9.33
2019-03-08T03:08:32.490Z,4.93
2019-03-08T03:11:07.774Z,6.27
2019-03-08T03:13:39.268Z,5.03
2019-03-08T03:16:10.684Z,6.13
2019-03-08T03:18:42.154Z,6.27
2019-03-08T03:21:13.640Z,7.20
2019-03-08T03:23:45.082Z,6.30
2019-03-08T03:26:16.556Z,7.50
2019-03-08T03:28:48.025Z,7.53
2019-03-08T03:31:19.445Z,6.27
2019-03-08T03:33:50.946Z,7.10
2019-03-08T03:36:22.372Z,7.00
2019-03-08T03:38:53.838Z,6.80
2019-03-08T03:41:25.316Z,6.50
2019-03-08T03:43:57.108Z,6.87
2019-03-08T03:46:28.541Z,9.30
2019-03-08T03:49:00.034Z,7.60
2019-03-08T03:51:31.829Z,9.50
2019-03-08T03:54:03.306Z,7.77
2019-03-08T03:56:34.748Z,6.73
2019-03-08T03:59:06.222Z,8.40
2019-03-08T04:01:45.033Z,6.43
2019-03-08T04:04:16.518Z,6.03
2019-03-08T04:06:47.954Z,7.87
2019-03-08T04:09:19.400Z,4.47
2019-03-08T04:11:50.828Z,4.80
2019-03-08T04:14:22.494Z,4.63
2019-03-08T04:16:53.918Z,6.73
2019-03-08T04:19:25.391Z,3.17
2019-03-08T04:21:56.834Z,3.40
2019-03-08T04:24:28.294Z,2.50
2019-03-08T04:26:59.832Z,4.10
2019-03-08T04:29:31.303Z,3.90
2019-03-08T04:32:02.730Z,2.80
2019-03-08T04:34:34.295Z,4.10
2019-03-08T04:37:05.781Z,4.13
2019-03-08T04:39:37.264Z,3.03
2019-03-08T04:42:08.733Z,3.17
2019-03-08T04:44:40.183Z,5.57
2019-03-08T04:47:11.690Z,4.60
2019-03-08T04:49:43.283Z,5.43
2019-03-08T04:52:15.849Z,3.77
2019-03-08T04:54:47.860Z,4.67
2019-03-08T04:57:19.608Z,3.80
2019-03-08T04:59:51.154Z,5.57
2019-03-08T05:02:22.881Z,6.10
2019-03-08T05:04:54.554Z,2.60
2019-03-08T05:07:26.034Z,12.03
2019-03-08T05:09:57.496Z,6.93
2019-03-08T05:12:30.961Z,4.73
2019-03-08T05:15:02.455Z,3.13
2019-03-08T05:17:34.995Z,4.20
2019-03-08T05:20:07.073Z,3.10
2019-03-08T05:22:38.537Z,2.30
2019-03-08T05:25:10.204Z,5.40
2019-03-08T05:27:42.998Z,5.60
2019-03-08T05:30:15.071Z,3.83
2019-03-08T05:32:46.575Z,3.20
2019-03-08T05:35:18.118Z,2.57
2019-03-08T05:37:49.599Z,1.87
2019-03-08T05:40:21.059Z,3.27
2019-03-08T05:42:52.491Z,6.53
2019-03-08T05:45:24.133Z,1.23
2019-03-08T05:47:55.591Z,2.70
2019-03-08T05:50:27.317Z,2.83
2019-03-08T05:52:58.765Z,3.37
2019-03-08T05:55:30.313Z,5.00
2019-03-08T05:58:01.801Z,1.93
2019-03-08T06:00:35.361Z,4.13
2019-03-08T06:03:06.730Z,2.90
2019-03-08T06:05:38.249Z,4.40
2019-03-08T06:08:10.101Z,6.67
2019-03-08T06:10:41.584Z,3.43
2019-03-08T06:13:13.015Z,6.63
2019-03-08T06:15:45.141Z,7.97
2019-03-08T06:18:16.639Z,9.50
2019-03-08T06:20:48.102Z,7.07
2019-03-08T06:23:26.278Z,14.43
2019-03-08T06:25:57.899Z,9.00
2019-03-08T06:28:29.394Z,6.43
2019-03-08T06:31:00.957Z,8.10
2019-03-08T06:33:32.495Z,7.43
2019-03-08T06:36:07.149Z,4.10
2019-03-08T06:38:38.990Z,6.93
2019-03-08T06:41:10.562Z,8.20
2019-03-08T06:43:42.051Z,16.30
2019-03-08T06:46:13.559Z,13.53
2019-03-08T06:48:44.998Z,5.23
2019-03-08T06:51:16.625Z,24.80
2019-03-08T06:53:48.120Z,13.67
2019-03-08T06:56:19.553Z,9.97
2019-03-08T06:59:15.701Z,12.90
2019-03-08T07:01:47.181Z,15.63
2019-03-08T07:04:18.659Z,11.03
2019-03-08T07:06:50.073Z,33.00
2019-03-08T07:09:27.428Z,21.40
2019-03-08T07:11:58.920Z,26.33
2019-03-08T07:14:30.371Z,19.90
2019-03-08T07:17:01.907Z,21.97
2019-03-08T07:19:40.775Z,63.93
2019-03-08T07:22:12.691Z,32.67
2019-03-08T07:25:16.322Z,35.73
2019-03-08T07:28:22.429Z,31.90
2019-03-08T07:31:12.062Z,28.17
2019-03-08T07:34:11.681Z,22.57
2019-03-08T07:37:02.367Z,15.83
2019-03-08T07:39:55.501Z,25.30
2019-03-08T07:42:45.086Z,30.13
2019-03-08T07:45:38.645Z,43.30
2019-03-08T07:48:28.629Z,40.33
2019-03-08T07:51:20.862Z,39.30
2019-03-08T07:54:13.714Z,34.30
2019-03-08T07:57:09.429Z,25.57
2019-03-08T07:59:55.728Z,36.50
2019-03-08T08:02:52.210Z,32.83
2019-03-08T08:06:12.295Z,39.57
2019-03-08T08:09:13.044Z,41.63
2019-03-08T08:12:06.654Z,29.10
2019-03-08T08:15:15.526Z,39.93
2019-03-08T08:18:08.840Z,38.33
2019-03-08T08:21:07.207Z,26.63
2019-03-08T08:24:03.941Z,26.33
2019-03-08T08:26:54.408Z,38.23
2019-03-08T08:30:00.729Z,17.13
2019-03-08T08:32:54.316Z,19.47
2019-03-08T08:36:00.541Z,18.13
2019-03-08T08:38:51.356Z,18.50
2019-03-08T08:42:00.679Z,32.77
2019-03-08T08:44:41.674Z,37.70
2019-03-08T08:47:38.204Z,31.73
2019-03-08T08:50:27.531Z,20.80
2019-03-08T08:53:07.795Z,31.40
2019-03-08T08:55:45.472Z,18.87
2019-03-08T08:58:46.488Z,14.97
2019-03-08T09:01:35.751Z,34.07
2019-03-08T09:04:22.674Z,17.00
2019-03-08T09:07:19.293Z,18.00
2019-03-08T09:10:08.426Z,25.60
2019-03-08T09:13:11.280Z,37.23
2019-03-08T09:16:01.735Z,39.27
2019-03-08T09:18:49.701Z,28.33
2019-03-08T09:21:31.698Z,33.13
2019-03-08T09:24:08.897Z,25.47
2019-03-08T09:26:59.666Z,19.70
2019-03-08T09:29:49.526Z,17.20
2019-03-08T09:32:42.824Z,14.80
2019-03-08T09:35:32.414Z,24.90
2019-03-08T09:38:14.518Z,34.93
2019-03-08T09:41:05.195Z,33.13
2019-03-08T09:44:14.098Z,21.40
2019-03-08T09:47:07.904Z,28.63
2019-03-08T09:49:57.220Z,23.97
2019-03-08T09:52:54.550Z,23.43
2019-03-08T09:55:45.229Z,28.60
2019-03-08T09:58:38.666Z,22.97
2019-03-08T10:01:27.962Z,17.43
2019-03-08T10:04:14.571Z,35.50
2019-03-08T10:06:55.434Z,22.23
2019-03-08T10:09:41.893Z,19.10
2019-03-08T10:12:19.977Z,23.43
2019-03-08T10:15:02.951Z,21.30
2019-03-08T10:17:56.798Z,19.10
2019-03-08T10:20:55.314Z,28.47
2019-03-08T10:23:33.846Z,35.17
2019-03-08T10:26:13.086Z,12.97
2019-03-08T10:29:06.478Z,21.00
2019-03-08T10:32:03.177Z,20.93
2019-03-08T10:34:45.165Z,23.37
2019-03-08T10:37:38.399Z,39.33
2019-03-08T10:40:30.279Z,28.90
2019-03-08T10:43:07.348Z,18.43
2019-03-08T10:46:00.580Z,10.33
2019-03-08T10:48:48.122Z,19.83
2019-03-08T10:51:33.250Z,18.50
2019-03-08T10:54:29.164Z,18.80
2019-03-08T10:57:47.355Z,17.30
2019-03-08T11:00:28.770Z,24.13
2019-03-08T11:03:16.850Z,18.10
2019-03-08T11:05:55.051Z,17.60
2019-03-08T11:08:44.864Z,22.80
2019-03-08T11:11:36.725Z,18.17
2019-03-08T11:14:44.451Z,16.90
2019-03-08T11:17:36.808Z,21.40
2019-03-08T11:20:28.781Z,20.40
2019-03-08T11:23:35.960Z,17.00
2019-03-08T11:26:29.681Z,6.63
2019-03-08T11:29:20.010Z,16.53
2019-03-08T11:32:22.829Z,20.30
2019-03-08T11:35:08.145Z,19.47
2019-03-08T11:37:44.363Z,23.97
2019-03-08T11:40:27.395Z,14.40
2019-03-08T11:43:16.265Z,8.97
2019-03-08T11:46:21.199Z,35.20
2019-03-08T11:49:19.782Z,16.93
2019-03-08T11:52:10.714Z,14.23
2019-03-08T11:54:56.039Z,19.50
2019-03-08T11:57:47.025Z,21.23
2019-03-08T12:00:41.351Z,14.00
2019-03-08T12:03:32.273Z,22.97
2019-03-08T12:06:36.083Z,18.47
2019-03-08T12:09:47.159Z,16.43
2019-03-08T12:12:42.657Z,18.43
2019-03-08T12:15:41.181Z,22.40
2019-03-08T12:18:37.595Z,17.53
2019-03-08T12:21:49.421Z,14.33
2019-03-08T12:24:45.709Z,18.10
2019-03-08T12:27:39.501Z,16.37
2019-03-08T12:30:31.256Z,18.37
2019-03-08T12:33:22.095Z,16.73
2019-03-08T12:36:11.633Z,19.60
2019-03-08T12:39:06.399Z,20.20
2019-03-08T12:42:01.040Z,25.63
2019-03-08T12:44:43.125Z,23.70
2019-03-08T12:47:29.005Z,22.07
2019-03-08T12:50:19.430Z,17.20
2019-03-08T12:53:12.449Z,20.20
2019-03-08T12:56:03.419Z,17.23
2019-03-08T12:58:58.931Z,25.70
2019-03-08T13:01:52.699Z,16.07
2019-03-08T13:04:53.051Z,18.27
2019-03-08T13:07:33.156Z,11.97
2019-03-08T13:10:12.119Z,27.53
2019-03-08T13:12:58.282Z,5.53
2019-03-08T13:15:32.915Z,23.00
2019-03-08T13:18:04.535Z,26.93
2019-03-08T13:20:38.913Z,19.57
2019-03-08T13:23:14.171Z,18.80
2019-03-08T13:25:50.552Z,18.77
2019-03-08T13:28:22.371Z,14.67
2019-03-08T13:30:55.882Z,15.83
2019-03-08T13:33:28.726Z,8.67
2019-03-08T13:36:00.745Z,9.60
2019-03-08T13:38:32.624Z,36.37
2019-03-08T13:41:04.836Z,21.57
2019-03-08T13:43:39.510Z,20.77
2019-03-08T13:46:11.643Z,12.73
2019-03-08T13:48:43.796Z,9.57
2019-03-08T13:51:17.210Z,6.13
2019-03-08T13:54:13.756Z,15.93
2019-03-08T13:56:47.903Z,13.03
2019-03-08T13:59:24.837Z,9.17
2019-03-08T14:01:57.725Z,18.33
2019-03-08T14:04:29.468Z,14.83
2019-03-08T14:07:03.167Z,22.23
2019-03-08T14:09:38.426Z,11.67
2019-03-08T14:12:13.883Z,20.20
2019-03-08T14:14:45.683Z,23.33
2019-03-08T14:17:17.828Z,13.23
2019-03-08T14:19:50.034Z,15.17
2019-03-08T14:22:40.243Z,19.23
2019-03-08T14:25:32.422Z,14.83
2019-03-08T14:28:37.522Z,12.40
2019-03-08T14:31:31.879Z,16.87
2019-03-08T14:34:16.573Z,25.00
2019-03-08T14:36:44.544Z,15.30
2019-03-08T14:39:16.200Z,17.67
2019-03-08T14:41:54.032Z,13.23
2019-03-08T14:44:43.463Z,7.57
2019-03-08T14:47:29.472Z,7.83
2019-03-08T14:50:02.429Z,15.13
2019-03-08T14:52:34.348Z,19.63
2019-03-08T14:55:07.969Z,12.70
2019-03-08T14:57:55.298Z,12.00
2019-03-08T15:00:29.110Z,15.27
2019-03-08T15:02:59.252Z,18.70
2019-03-08T15:05:33.084Z,14.00
2019-03-08T15:08:04.700Z,9.70
2019-03-08T15:10:39.616Z,15.33
2019-03-08T15:13:09.769Z,16.43
2019-03-08T15:15:41.363Z,16.67
2019-03-08T15:18:17.608Z,13.90
2019-03-08T15:20:51.102Z,20.80
2019-03-08T15:23:27.501Z,19.10
2019-03-08T15:26:05.100Z,13.77
2019-03-08T15:28:37.768Z,24.10
2019-03-08T15:31:11.924Z,22.27
2019-03-08T15:33:43.544Z,18.30
2019-03-08T15:36:15.008Z,15.30
2019-03-08T15:38:58.203Z,22.67
2019-03-08T15:41:26.505Z,20.77
2019-03-08T15:43:58.586Z,20.23
2019-03-08T15:46:30.302Z,17.93
2019-03-08T15:49:03.097Z,18.60
2019-03-08T15:51:34.647Z,23.43
2019-03-08T15:54:06.220Z,23.57
2019-03-08T15:56:37.697Z,24.83
2019-03-08T15:59:09.559Z,13.60
2019-03-08T16:01:41.093Z,22.33
2019-03-08T16:04:13.072Z,14.33
2019-03-08T16:06:45.469Z,21.90
2019-03-08T16:09:17.087Z,18.43
2019-03-08T16:12:07.778Z,18.40
2019-03-08T16:14:39.623Z,19.47
2019-03-08T16:17:12.689Z,21.53
2019-03-08T16:19:44.590Z,16.97
2019-03-08T16:22:16.441Z,16.73
2019-03-08T16:24:48.141Z,15.87
2019-03-08T16:27:23.111Z,12.53
2019-03-08T16:29:56.627Z,14.97
2019-03-08T16:32:38.298Z,10.67
2019-03-08T16:35:10.305Z,11.60
2019-03-08T16:38:00.969Z,10.17
2019-03-08T16:41:02.667Z,11.03
2019-03-08T16:43:55.569Z,12.53
2019-03-08T16:46:43.730Z,10.33
2019-03-08T16:49:34.554Z,11.17
2019-03-08T16:52:19.797Z,12.77
2019-03-08T16:55:18.328Z,15.77
2019-03-08T16:58:11.028Z,13.83
2019-03-08T17:01:12.451Z,24.00
2019-03-08T17:04:12.501Z,7.30
2019-03-08T17:06:53.403Z,26.27
2019-03-08T17:09:38.622Z,14.97
2019-03-08T17:12:32.210Z,12.67
2019-03-08T17:15:13.914Z,14.67
2019-03-08T17:18:09.319Z,14.30
2019-03-08T17:20:58.652Z,8.17
2019-03-08T17:23:52.076Z,23.23
2019-03-08T17:26:31.997Z,11.00
2019-03-08T17:29:15.319Z,16.60
2019-03-08T17:32:06.203Z,14.20
2019-03-08T17:34:52.999Z,12.50
2019-03-08T17:37:37.175Z,15.40
2019-03-08T17:40:15.070Z,14.87
2019-03-08T17:43:17.160Z,11.93
2019-03-08T17:45:54.631Z,16.17
2019-03-08T17:48:43.914Z,13.10
2019-03-08T17:51:37.466Z,22.90
2019-03-08T17:54:40.076Z,13.57
2019-03-08T17:57:42.837Z,13.87
2019-03-08T18:00:33.973Z,13.40
2019-03-08T18:03:25.340Z,26.77
2019-03-08T18:06:03.677Z,15.53
2019-03-08T18:09:00.427Z,10.90
2019-03-08T18:11:58.273Z,15.97
2019-03-08T18:14:54.671Z,22.50
2019-03-08T18:17:36.682Z,15.67
2019-03-08T18:20:16.334Z,22.93
2019-03-08T18:23:09.505Z,19.43
2019-03-08T18:25:53.329Z,10.90
2019-03-08T18:28:41.623Z,20.17
2019-03-08T18:31:36.766Z,17.00
2019-03-08T18:34:36.633Z,19.87
2019-03-08T18:37:25.814Z,23.07
2019-03-08T18:40:15.107Z,15.50
2019-03-08T18:42:56.636Z,14.43
2019-03-08T18:45:50.042Z,17.83
2019-03-08T18:48:27.797Z,15.83
2019-03-08T18:51:21.667Z,21.47
2019-03-08T18:54:07.540Z,14.70
2019-03-08T18:57:04.490Z,16.37
2019-03-08T18:59:46.834Z,17.60
2019-03-08T19:02:36.052Z,16.63
2019-03-08T19:05:27.745Z,11.83
2019-03-08T19:08:30.332Z,17.40
2019-03-08T19:11:11.957Z,12.70
2019-03-08T19:14:05.446Z,20.50
2019-03-08T19:16:51.033Z,24.40
2019-03-08T19:19:40.197Z,17.80
2019-03-08T19:22:44.823Z,18.43
2019-03-08T19:25:38.117Z,20.70
2019-03-08T19:28:37.747Z,19.20
2019-03-08T19:31:28.672Z,20.53
2019-03-08T19:34:28.340Z,23.07
2019-03-08T19:37:33.986Z,15.17
2019-03-08T19:40:22.493Z,19.57
2019-03-08T19:43:15.840Z,16.03
2019-03-08T19:46:05.246Z,26.43
2019-03-08T19:49:04.266Z,33.23
2019-03-08T19:51:54.819Z,24.80
2019-03-08T19:54:48.337Z,18.83
2019-03-08T19:57:37.993Z,18.43
2019-03-08T20:00:37.468Z,28.10
2019-03-08T20:03:26.638Z,14.33
2019-03-08T20:06:03.051Z,23.60
2019-03-08T20:08:52.413Z,18.77
2019-03-08T20:11:37.500Z,24.73
2019-03-08T20:14:30.877Z,19.63
2019-03-08T20:17:21.510Z,16.07
2019-03-08T20:20:12.108Z,21.80
2019-03-08T20:23:11.862Z,14.03
2019-03-08T20:25:52.406Z,20.47
2019-03-08T20:28:41.863Z,19.40
2019-03-08T20:31:27.052Z,13.23
2019-03-08T20:34:15.159Z,13.90
2019-03-08T20:37:15.341Z,17.77
2019-03-08T20:40:03.600Z,16.50
2019-03-08T20:42:55.319Z,24.23
2019-03-08T20:45:38.162Z,18.83
2019-03-08T20:48:09.914Z,14.73
2019-03-08T20:50:44.029Z,18.00
2019-03-08T20:53:15.649Z,17.00
2019-03-08T20:55:48.157Z,24.00
2019-03-08T20:58:19.920Z,19.93
2019-03-08T21:00:51.642Z,13.90
2019-03-08T21:03:23.770Z,25.57
2019-03-08T21:05:56.378Z,17.53
2019-03-08T21:08:28.073Z,13.50
2019-03-08T21:10:59.977Z,18.60
2019-03-08T21:13:31.784Z,17.63
2019-03-08T21:16:03.466Z,22.73
2019-03-08T21:18:35.142Z,14.37
2019-03-08T21:21:06.755Z,19.00
2019-03-08T21:23:38.469Z,15.47
2019-03-08T21:26:10.144Z,18.57
2019-03-08T21:28:42.278Z,15.10
2019-03-08T21:31:13.906Z,20.83
2019-03-08T21:33:45.522Z,19.40
2019-03-08T21:36:17.269Z,22.30
2019-03-08T21:38:48.952Z,18.30
2019-03-08T21:41:20.741Z,15.87
2019-03-08T21:43:52.690Z,19.83
2019-03-08T21:46:24.749Z,32.17
2019-03-08T21:48:56.638Z,19.03
2019-03-08T21:51:30.164Z,20.20
2019-03-08T21:54:01.947Z,13.07
2019-03-08T21:56:34.862Z,24.30
2019-03-08T21:59:06.757Z,20.80
2019-03-08T22:01:38.664Z,14.47
2019-03-08T22:04:27.907Z,21.13
2019-03-08T22:07:02.505Z,14.20
2019-03-08T22:09:48.613Z,19.00
2019-03-08T22:12:21.756Z,17.00
2019-03-08T22:14:53.213Z,21.83
2019-03-08T22:17:24.940Z,15.80
2019-03-08T22:19:56.614Z,18.77
2019-03-08T22:22:28.285Z,14.40
2019-03-08T22:25:00.186Z,18.10
2019-03-08T22:27:32.029Z,23.57
2019-03-08T22:30:09.689Z,19.33
2019-03-08T22:32:41.551Z,19.17
2019-03-08T22:35:13.279Z,19.63
2019-03-08T22:37:44.772Z,29.53
2019-03-08T22:40:16.762Z,18.77
2019-03-08T22:42:49.825Z,25.27
2019-03-08T22:45:23.314Z,10.63
2019-03-08T22:47:55.208Z,14.33
2019-03-08T22:50:26.908Z,24.87
2019-03-08T22:52:58.906Z,20.53
2019-03-08T22:55:30.682Z,23.43
2019-03-08T22:58:02.306Z,15.03
2019-03-08T23:01:00.991Z,16.10
2019-03-08T23:03:34.325Z,16.07
2019-03-08T23:06:07.848Z,11.77
2019-03-08T23:08:39.903Z,29.13
2019-03-08T23:11:11.974Z,18.40
2019-03-08T23:13:44.005Z,10.20
2019-03-08T23:16:16.009Z,14.30
2019-03-08T23:18:47.850Z,14.13
2019-03-08T23:21:19.806Z,20.13
2019-03-08T23:23:51.460Z,20.43
2019-03-08T23:26:23.236Z,15.67
2019-03-08T23:29:06.421Z,13.93
2019-03-08T23:31:41.643Z,19.13
2019-03-08T23:34:13.461Z,13.87
2019-03-08T23:36:44.976Z,10.93
2019-03-08T23:39:16.904Z,24.70
2019-03-08T23:41:50.281Z,11.33
2019-03-08T23:44:21.941Z,12.60
2019-03-08T23:46:53.637Z,13.70
2019-03-08T23:49:29.041Z,13.53
2019-03-08T23:52:01.163Z,18.60
2019-03-08T23:54:33.602Z,10.47
2019-03-08T23:57:05.630Z,17.33
2019-03-08T23:59:37.418Z,17.50
